createdAt,value
2018-05-01T00:03:57.427Z,3.37
2018-05-01T00:13:51.578Z,3.37
2018-05-01T00:23:47.372Z,3.37
2018-05-01T00:33:44.789Z,3.37
2018-05-01T00:43:42.065Z,3.37
2018-05-01T00:53:36.171Z,3.37
2018-05-01T01:03:28.556Z,3.36
2018-05-01T01:13:24.386Z,3.36
2018-05-01T01:23:20.432Z,3.36
2018-05-01T01:33:17.569Z,3.36
2018-05-01T01:43:13.847Z,3.36
2018-05-01T01:53:10.004Z,3.36
2018-05-01T02:03:05.291Z,3.36
2018-05-01T02:13:03.236Z,3.35
2018-05-01T02:23:00.891Z,3.36
2018-05-01T02:32:59.232Z,3.35
2018-05-01T02:42:55.861Z,3.34
2018-05-01T02:52:52.305Z,3.35
2018-05-01T03:02:48.340Z,3.34
2018-05-01T03:12:44.986Z,3.34
2018-05-01T03:22:41.103Z,3.34
2018-05-01T03:32:35.785Z,3.34
2018-05-01T03:42:33.250Z,3.34
2018-05-01T03:52:30.741Z,3.34
2018-05-01T04:02:24.896Z,3.34
2018-05-01T04:12:22.425Z,3.34
2018-05-01T04:22:20.540Z,3.34
2018-05-01T04:32:16.797Z,3.34
2018-05-01T04:42:15.306Z,3.34
2018-05-01T04:52:01.081Z,3.34
2018-05-01T05:01:58.596Z,3.35
2018-05-01T05:11:57.273Z,3.36
2018-05-01T05:21:54.033Z,3.37
2018-05-01T05:31:53.237Z,3.39
2018-05-01T05:41:53.025Z,3.40
2018-05-01T05:51:49.679Z,3.42
2018-05-01T06:01:44.412Z,3.43
2018-05-01T06:11:42.756Z,3.41
2018-05-01T06:21:39.849Z,3.40
2018-05-01T06:31:35.491Z,3.41
2018-05-01T06:41:32.118Z,3.42
2018-05-01T06:51:26.665Z,3.42
2018-05-01T07:01:01.660Z,3.42
2018-05-01T07:10:32.530Z,3.42
2018-05-01T07:20:03.966Z,3.42
2018-05-01T07:29:39.700Z,3.42
2018-05-01T07:39:09.168Z,3.42
2018-05-01T07:48:50.058Z,3.42
2018-05-01T07:58:18.820Z,3.42
2018-05-01T08:07:56.781Z,3.42
2018-05-01T08:17:32.693Z,3.42
2018-05-01T08:27:20.250Z,3.42
2018-05-01T08:36:45.034Z,3.42
2018-05-01T08:46:24.869Z,3.42
2018-05-01T08:55:59.829Z,3.42
2018-05-01T09:05:34.273Z,3.42
2018-05-01T09:15:00.924Z,3.42
2018-05-01T09:24:38.353Z,3.42
2018-05-01T09:34:15.558Z,3.42
2018-05-01T09:43:53.818Z,3.42
2018-05-01T09:53:31.454Z,3.42
2018-05-01T10:03:09.270Z,3.42
2018-05-01T10:12:46.563Z,3.42
2018-05-01T10:22:23.228Z,3.42
2018-05-01T10:32:00.218Z,3.42
2018-05-01T10:41:42.164Z,3.42
2018-05-01T10:51:10.867Z,3.42
2018-05-01T11:00:47.957Z,3.42
2018-05-01T11:10:29.998Z,3.42
2018-05-01T11:20:03.075Z,3.42
2018-05-01T11:29:31.770Z,3.42
2018-05-01T11:39:08.396Z,3.43
2018-05-01T11:48:45.145Z,3.43
2018-05-01T11:58:21.850Z,3.43
2018-05-01T12:07:59.909Z,3.42
2018-05-01T12:17:39.761Z,3.43
2018-05-01T12:27:16.742Z,3.43
2018-05-01T12:36:53.548Z,3.43
2018-05-01T12:46:29.125Z,3.42
2018-05-01T12:56:05.937Z,3.42
2018-05-01T13:05:43.598Z,3.42
2018-05-01T13:15:22.929Z,3.42
2018-05-01T13:25:01.564Z,3.43
2018-05-01T13:34:39.441Z,3.43
2018-05-01T13:44:12.957Z,3.42
2018-05-01T13:53:49.634Z,3.42
2018-05-01T14:03:28.710Z,3.42
2018-05-01T14:13:08.970Z,3.42
2018-05-01T14:22:47.548Z,3.42
2018-05-01T14:32:27.238Z,3.43
2018-05-01T14:42:04.321Z,3.43
2018-05-01T14:51:44.492Z,3.43
2018-05-01T15:01:21.353Z,3.43
2018-05-01T15:10:53.819Z,3.43
2018-05-01T15:20:32.747Z,3.42
2018-05-01T15:30:09.100Z,3.42
2018-05-01T15:39:43.838Z,3.42
2018-05-01T15:49:25.008Z,3.42
2018-05-01T15:58:59.421Z,3.42
2018-05-01T16:08:34.289Z,3.42
2018-05-01T16:18:10.428Z,3.43
2018-05-01T16:27:46.789Z,3.43
2018-05-01T16:37:23.016Z,3.43
2018-05-01T16:46:59.704Z,3.42
2018-05-01T16:56:40.490Z,3.43
2018-05-01T17:06:09.392Z,3.43
2018-05-01T17:15:49.638Z,3.43
2018-05-01T17:25:21.837Z,3.43
2018-05-01T17:34:50.233Z,3.43
2018-05-01T17:44:26.755Z,3.43
2018-05-01T17:54:02.929Z,3.42
2018-05-01T18:03:43.333Z,3.42
2018-05-01T18:13:11.903Z,3.42
2018-05-01T18:22:48.142Z,3.42
2018-05-01T18:32:24.453Z,3.42
2018-05-01T18:42:00.803Z,3.42
2018-05-01T18:51:37.617Z,3.42
2018-05-01T19:01:33.350Z,3.42
2018-05-01T19:11:08.924Z,3.41
2018-05-01T19:21:04.661Z,3.41
2018-05-01T19:31:01.399Z,3.41
2018-05-01T19:40:58.142Z,3.41
2018-05-01T19:50:52.779Z,3.41
2018-05-01T20:00:47.686Z,3.40
2018-05-01T20:10:45.100Z,3.40
2018-05-01T20:20:38.614Z,3.40
2018-05-01T20:30:30.714Z,3.40
2018-05-01T20:40:26.558Z,3.40
2018-05-01T20:50:24.000Z,3.40
2018-05-01T21:00:18.958Z,3.40
2018-05-01T21:10:15.853Z,3.40
2018-05-01T21:20:10.465Z,3.40
2018-05-01T21:30:07.887Z,3.40
2018-05-01T21:40:04.892Z,3.39
2018-05-01T21:49:58.467Z,3.39
2018-05-01T21:59:54.652Z,3.39
2018-05-01T22:09:52.213Z,3.39
2018-05-01T22:19:50.491Z,3.39
2018-05-01T22:29:46.981Z,3.39
2018-05-01T22:39:41.976Z,3.39
2018-05-01T22:49:39.839Z,3.39
2018-05-01T22:59:36.743Z,3.39
2018-05-01T23:09:32.147Z,3.39
2018-05-01T23:19:27.377Z,3.39
2018-05-01T23:29:23.850Z,3.39
2018-05-01T23:39:21.650Z,3.39
2018-05-01T23:49:18.736Z,3.39
2018-05-01T23:59:14.624Z,3.38
